Ouray, CO

12:00 AM MDT on August 30, 2014 (GMT -0600)
Ouray | Change Station
CLOSE
Current Station
Personal Weather Station
Location: Ouray, CO
Elevation: 7736 ft
Nearby Weather Stations

Elev 7736 ft 38.03 °N, 107.67 °W | Updated 0 second ago

Clear
Clear
51.6 °F
Feels Like 51.6 °F
N
2.0
Wind Variable Wind from SSE
Gusts 6.0 mph

Today
High -- | Low -- °F
--% Chance of Precip.
Yesterday
High -- | Low -- °F
Precip. -- in
6:38 AM 7:43 PM
Waxing Crescent, 19% visible
Pressure 30.40 in
Visibility 10.0 miles
Clouds Clear
Dew Point 41 °F
Humidity 68%
Rainfall 0.00 in
Snow Depth Not available.
UV 0 out of 12
Pollen 9.70 out of 12
Air Quality Not available.
Flu Activity Not available.
METAR KTEX 300536Z AUTO 13005KT 10SM CLR 11/04 A3040 RMK AO2

More Conditions Fewer Conditions

Pressure 30.40 in
Visibility 10.0 miles
Clouds Clear
Dew Point 41 °F
Humidity 68%
Rainfall 0.00 in
Snow Depth Not available.
UV 0 out of 12
Pollen 9.70 out of 12
Air Quality Not available.
Flu Activity Not available.
METAR KTEX 300536Z AUTO 13005KT 10SM CLR 11/04 A3040 RMK AO2

More Conditions Fewer Conditions

10-Day Weather Forecast

Almanac

Astronomy

Aug. 30, 2014 Rise Set
Actual Time 6:38 AM MDT 7:43 PM MDT
Civil Twilight 6:11 AM MDT 8:10 PM MDT
Nautical Twilight 5:39 AM MDT 8:42 PM MDT
Astronomical Twilight 5:06 AM MDT 9:15 PM MDT
Moon 11:24 AM MDT 10:24 PM MDT
Length of Visible Light 13h 58m
Length of Day
13h 04m
Tomorrow will be 2m 19s shorter.
Waxing Crescent, 19% of the Moon is Illuminated
Today
Waxing Crescent
Sep 2
First Quarter
Sep 8
Full
Sep 15
Last Quarter
Sep 24
New

Today's Extremes

State Highs State Lows

Community

WunderPhotos

Upload Photos

1,748,465 photos uploaded!

Nearby

Snow Depth

Station Depth Elevation
Red Mountain Pass 0 in 11150 ft
Lizard Head Pass 0 in 10200 ft
Beartown 0 in 11600 ft
El Diente Peak 1 in 10200 ft
Cascade #2 0 in 8920 ft

Earthquake Activity

City Distance Mag. Time & Date
No recent earthquake activity has been reported nearby.
Minimum magnitude displayed is 2.5.

Coastal Water Temperatures

Place Temperature
No Stations Reporting

Nearby Weather Stations